sensor_id;sensor_type;location;lat;lon;timestamp;P1;durP1;ratioP1;P2;durP2;ratioP2
20294;SDS011;10306;52.128;5.208;2023-05-10T00:01:25;36.80;;;17.60;;
20294;SDS011;10306;52.128;5.208;2023-05-10T00:03:51;39.43;;;17.67;;
20294;SDS011;10306;52.128;5.208;2023-05-10T00:06:17;34.53;;;17.37;;
20294;SDS011;10306;52.128;5.208;2023-05-10T00:08:43;33.77;;;18.03;;
20294;SDS011;10306;52.128;5.208;2023-05-10T00:11:09;33.10;;;16.13;;
20294;SDS011;10306;52.128;5.208;2023-05-10T00:13:35;30.83;;;16.37;;
20294;SDS011;10306;52.128;5.208;2023-05-10T00:16:01;32.63;;;16.80;;
20294;SDS011;10306;52.128;5.208;2023-05-10T00:18:27;30.60;;;15.60;;
20294;SDS011;10306;52.128;5.208;2023-05-10T00:20:53;33.03;;;17.07;;
20294;SDS011;10306;52.128;5.208;2023-05-10T00:23:19;35.90;;;17.47;;
20294;SDS011;10306;52.128;5.208;2023-05-10T00:25:45;34.83;;;18.23;;
20294;SDS011;10306;52.128;5.208;2023-05-10T00:28:11;41.43;;;19.57;;
20294;SDS011;10306;52.128;5.208;2023-05-10T00:30:37;35.30;;;17.70;;
20294;SDS011;10306;52.128;5.208;2023-05-10T00:33:03;35.20;;;17.10;;
20294;SDS011;10306;52.128;5.208;2023-05-10T00:35:29;32.70;;;16.17;;
20294;SDS011;10306;52.128;5.208;2023-05-10T00:37:54;39.80;;;18.50;;
20294;SDS011;10306;52.128;5.208;2023-05-10T00:40:20;40.13;;;18.60;;
20294;SDS011;10306;52.128;5.208;2023-05-10T00:42:46;38.80;;;19.60;;
20294;SDS011;10306;52.128;5.208;2023-05-10T00:45:12;42.40;;;18.77;;
20294;SDS011;10306;52.128;5.208;2023-05-10T00:47:39;39.77;;;18.67;;
20294;SDS011;10306;52.128;5.208;2023-05-10T00:50:05;42.63;;;19.30;;
20294;SDS011;10306;52.128;5.208;2023-05-10T00:52:31;44.93;;;19.37;;
20294;SDS011;10306;52.128;5.208;2023-05-10T00:54:57;43.33;;;19.63;;
20294;SDS011;10306;52.128;5.208;2023-05-10T00:57:23;39.90;;;19.10;;
20294;SDS011;10306;52.128;5.208;2023-05-10T00:59:49;39.30;;;17.87;;
20294;SDS011;10306;52.128;5.208;2023-05-10T01:02:16;50.30;;;21.40;;
20294;SDS011;10306;52.128;5.208;2023-05-10T01:04:42;43.50;;;19.43;;
20294;SDS011;10306;52.128;5.208;2023-05-10T01:07:08;49.53;;;21.93;;
20294;SDS011;10306;52.128;5.208;2023-05-10T01:09:35;41.77;;;18.63;;
20294;SDS011;10306;52.128;5.208;2023-05-10T01:12:01;48.23;;;22.13;;
20294;SDS011;10306;52.128;5.208;2023-05-10T01:14:28;57.13;;;24.30;;
20294;SDS011;10306;52.128;5.208;2023-05-10T01:16:54;51.37;;;22.40;;
20294;SDS011;10306;52.128;5.208;2023-05-10T01:19:25;51.57;;;23.90;;
20294;SDS011;10306;52.128;5.208;2023-05-10T01:24:39;53.03;;;21.97;;
20294;SDS011;10306;52.128;5.208;2023-05-10T01:27:17;59.90;;;23.10;;
20294;SDS011;10306;52.128;5.208;2023-05-10T01:32:24;64.90;;;26.23;;
20294;SDS011;10306;52.128;5.208;2023-05-10T01:35:08;69.30;;;26.03;;
20294;SDS011;10306;52.128;5.208;2023-05-10T01:37:40;75.60;;;26.10;;
20294;SDS011;10306;52.128;5.208;2023-05-10T01:42:54;74.47;;;26.33;;
20294;SDS011;10306;52.128;5.208;2023-05-10T01:45:39;65.10;;;23.77;;
20294;SDS011;10306;52.128;5.208;2023-05-10T01:48:09;64.53;;;25.00;;
20294;SDS011;10306;52.128;5.208;2023-05-10T01:50:36;64.20;;;24.67;;
20294;SDS011;10306;52.128;5.208;2023-05-10T01:53:03;66.23;;;24.00;;
20294;SDS011;10306;52.128;5.208;2023-05-10T01:55:32;63.67;;;24.73;;
20294;SDS011;10306;52.128;5.208;2023-05-10T01:58:00;64.47;;;25.23;;
20294;SDS011;10306;52.128;5.208;2023-05-10T02:00:28;67.73;;;24.07;;
20294;SDS011;10306;52.128;5.208;2023-05-10T02:02:55;74.30;;;27.07;;
20294;SDS011;10306;52.128;5.208;2023-05-10T02:05:21;77.00;;;25.97;;
20294;SDS011;10306;52.128;5.208;2023-05-10T02:07:47;70.90;;;25.13;;
20294;SDS011;10306;52.128;5.208;2023-05-10T02:10:14;67.97;;;23.50;;
20294;SDS011;10306;52.128;5.208;2023-05-10T02:12:42;75.93;;;25.57;;
20294;SDS011;10306;52.128;5.208;2023-05-10T02:15:09;77.67;;;24.87;;
20294;SDS011;10306;52.128;5.208;2023-05-10T02:17:36;86.53;;;27.60;;
20294;SDS011;10306;52.128;5.208;2023-05-10T02:20:03;80.07;;;25.90;;
20294;SDS011;10306;52.128;5.208;2023-05-10T02:22:29;82.87;;;26.10;;
20294;SDS011;10306;52.128;5.208;2023-05-10T02:24:55;88.07;;;25.07;;
20294;SDS011;10306;52.128;5.208;2023-05-10T02:27:23;88.53;;;26.97;;
20294;SDS011;10306;52.128;5.208;2023-05-10T02:29:49;91.17;;;25.70;;
20294;SDS011;10306;52.128;5.208;2023-05-10T02:32:16;102.70;;;27.00;;
20294;SDS011;10306;52.128;5.208;2023-05-10T02:34:43;90.30;;;26.00;;
20294;SDS011;10306;52.128;5.208;2023-05-10T02:37:10;90.23;;;25.17;;
20294;SDS011;10306;52.128;5.208;2023-05-10T02:39:37;99.63;;;26.10;;
20294;SDS011;10306;52.128;5.208;2023-05-10T02:42:08;99.70;;;27.60;;
20294;SDS011;10306;52.128;5.208;2023-05-10T02:44:35;96.67;;;26.77;;
20294;SDS011;10306;52.128;5.208;2023-05-10T02:47:02;96.67;;;26.53;;
20294;SDS011;10306;52.128;5.208;2023-05-10T02:49:28;105.03;;;26.90;;
20294;SDS011;10306;52.128;5.208;2023-05-10T02:51:55;101.80;;;27.27;;
20294;SDS011;10306;52.128;5.208;2023-05-10T02:54:24;101.93;;;27.43;;
20294;SDS011;10306;52.128;5.208;2023-05-10T02:56:58;109.87;;;28.67;;
20294;SDS011;10306;52.128;5.208;2023-05-10T02:59:25;98.03;;;27.33;;
20294;SDS011;10306;52.128;5.208;2023-05-10T03:01:51;96.97;;;28.30;;
20294;SDS011;10306;52.128;5.208;2023-05-10T03:04:17;103.33;;;29.03;;
20294;SDS011;10306;52.128;5.208;2023-05-10T03:06:43;99.10;;;30.73;;
20294;SDS011;10306;52.128;5.208;2023-05-10T03:09:09;98.33;;;30.60;;
20294;SDS011;10306;52.128;5.208;2023-05-10T03:14:21;111.13;;;32.53;;
20294;SDS011;10306;52.128;5.208;2023-05-10T03:16:52;104.70;;;30.50;;
20294;SDS011;10306;52.128;5.208;2023-05-10T03:19:24;103.87;;;31.00;;
20294;SDS011;10306;52.128;5.208;2023-05-10T03:21:52;99.40;;;32.53;;
20294;SDS011;10306;52.128;5.208;2023-05-10T03:24:20;98.00;;;30.80;;
20294;SDS011;10306;52.128;5.208;2023-05-10T03:26:46;98.93;;;31.40;;
20294;SDS011;10306;52.128;5.208;2023-05-10T03:29:13;102.17;;;31.60;;
20294;SDS011;10306;52.128;5.208;2023-05-10T03:31:39;101.60;;;31.77;;
20294;SDS011;10306;52.128;5.208;2023-05-10T03:34:05;101.47;;;31.30;;
20294;SDS011;10306;52.128;5.208;2023-05-10T03:36:32;102.60;;;31.17;;
20294;SDS011;10306;52.128;5.208;2023-05-10T03:38:58;99.73;;;30.60;;
20294;SDS011;10306;52.128;5.208;2023-05-10T03:41:24;106.57;;;31.43;;
20294;SDS011;10306;52.128;5.208;2023-05-10T03:43:50;96.37;;;28.87;;
20294;SDS011;10306;52.128;5.208;2023-05-10T03:46:16;102.73;;;31.47;;
20294;SDS011;10306;52.128;5.208;2023-05-10T03:48:42;99.93;;;30.57;;
20294;SDS011;10306;52.128;5.208;2023-05-10T03:51:08;102.83;;;30.93;;
20294;SDS011;10306;52.128;5.208;2023-05-10T03:53:34;104.50;;;30.43;;
20294;SDS011;10306;52.128;5.208;2023-05-10T03:56:00;97.67;;;29.17;;
20294;SDS011;10306;52.128;5.208;2023-05-10T03:58:26;105.30;;;30.53;;
20294;SDS011;10306;52.128;5.208;2023-05-10T04:00:52;102.97;;;30.27;;
20294;SDS011;10306;52.128;5.208;2023-05-10T04:03:18;106.13;;;31.63;;
20294;SDS011;10306;52.128;5.208;2023-05-10T04:05:45;104.60;;;30.93;;
20294;SDS011;10306;52.128;5.208;2023-05-10T04:08:11;99.20;;;30.70;;
20294;SDS011;10306;52.128;5.208;2023-05-10T04:10:37;87.83;;;27.40;;
20294;SDS011;10306;52.128;5.208;2023-05-10T04:13:03;94.73;;;29.57;;
20294;SDS011;10306;52.128;5.208;2023-05-10T04:15:29;86.97;;;29.33;;
20294;SDS011;10306;52.128;5.208;2023-05-10T04:17:55;77.30;;;25.90;;
20294;SDS011;10306;52.128;5.208;2023-05-10T04:20:21;86.40;;;30.17;;
20294;SDS011;10306;52.128;5.208;2023-05-10T04:22:46;85.10;;;27.73;;
20294;SDS011;10306;52.128;5.208;2023-05-10T04:25:12;89.23;;;28.87;;
20294;SDS011;10306;52.128;5.208;2023-05-10T04:27:38;78.03;;;28.33;;
20294;SDS011;10306;52.128;5.208;2023-05-10T04:30:05;81.30;;;28.53;;
20294;SDS011;10306;52.128;5.208;2023-05-10T04:32:31;76.63;;;29.53;;
20294;SDS011;10306;52.128;5.208;2023-05-10T04:34:57;77.77;;;30.57;;
20294;SDS011;10306;52.128;5.208;2023-05-10T04:37:23;76.17;;;28.53;;
20294;SDS011;10306;52.128;5.208;2023-05-10T04:39:49;79.80;;;28.03;;
20294;SDS011;10306;52.128;5.208;2023-05-10T04:42:15;78.87;;;28.63;;
20294;SDS011;10306;52.128;5.208;2023-05-10T04:44:41;77.50;;;29.37;;
20294;SDS011;10306;52.128;5.208;2023-05-10T04:47:07;81.63;;;31.40;;
20294;SDS011;10306;52.128;5.208;2023-05-10T04:49:33;83.73;;;30.97;;
20294;SDS011;10306;52.128;5.208;2023-05-10T04:51:59;84.43;;;30.97;;
20294;SDS011;10306;52.128;5.208;2023-05-10T04:54:25;94.83;;;33.77;;
20294;SDS011;10306;52.128;5.208;2023-05-10T04:56:51;89.73;;;32.83;;
20294;SDS011;10306;52.128;5.208;2023-05-10T04:59:17;83.60;;;31.77;;
20294;SDS011;10306;52.128;5.208;2023-05-10T05:01:43;87.50;;;32.60;;
20294;SDS011;10306;52.128;5.208;2023-05-10T05:04:09;91.93;;;32.30;;
20294;SDS011;10306;52.128;5.208;2023-05-10T05:06:35;89.63;;;32.73;;
20294;SDS011;10306;52.128;5.208;2023-05-10T05:09:01;92.30;;;32.03;;
20294;SDS011;10306;52.128;5.208;2023-05-10T05:11:27;87.20;;;30.93;;
20294;SDS011;10306;52.128;5.208;2023-05-10T05:13:53;90.57;;;31.23;;
20294;SDS011;10306;52.128;5.208;2023-05-10T05:16:19;92.00;;;30.17;;
20294;SDS011;10306;52.128;5.208;2023-05-10T05:18:45;85.53;;;30.13;;
20294;SDS011;10306;52.128;5.208;2023-05-10T05:21:14;92.30;;;30.07;;
20294;SDS011;10306;52.128;5.208;2023-05-10T05:23:41;85.00;;;29.37;;
20294;SDS011;10306;52.128;5.208;2023-05-10T05:26:07;90.30;;;29.30;;
20294;SDS011;10306;52.128;5.208;2023-05-10T05:28:32;90.30;;;29.83;;
20294;SDS011;10306;52.128;5.208;2023-05-10T05:31:02;72.20;;;28.33;;
20294;SDS011;10306;52.128;5.208;2023-05-10T05:33:27;80.10;;;28.70;;
20294;SDS011;10306;52.128;5.208;2023-05-10T05:35:53;73.93;;;28.70;;
20294;SDS011;10306;52.128;5.208;2023-05-10T05:38:19;78.00;;;28.80;;
20294;SDS011;10306;52.128;5.208;2023-05-10T05:40:45;70.27;;;27.37;;
20294;SDS011;10306;52.128;5.208;2023-05-10T05:43:11;74.83;;;29.03;;
20294;SDS011;10306;52.128;5.208;2023-05-10T05:45:38;82.63;;;28.73;;
20294;SDS011;10306;52.128;5.208;2023-05-10T05:48:04;69.97;;;26.63;;
20294;SDS011;10306;52.128;5.208;2023-05-10T05:50:30;74.60;;;26.90;;
20294;SDS011;10306;52.128;5.208;2023-05-10T05:52:56;69.43;;;27.03;;
20294;SDS011;10306;52.128;5.208;2023-05-10T05:55:22;62.40;;;25.60;;
20294;SDS011;10306;52.128;5.208;2023-05-10T05:57:49;69.00;;;25.33;;
20294;SDS011;10306;52.128;5.208;2023-05-10T06:00:15;71.27;;;23.70;;
20294;SDS011;10306;52.128;5.208;2023-05-10T06:02:41;65.93;;;22.83;;
20294;SDS011;10306;52.128;5.208;2023-05-10T06:05:07;62.03;;;22.47;;
20294;SDS011;10306;52.128;5.208;2023-05-10T06:07:33;62.73;;;22.33;;
20294;SDS011;10306;52.128;5.208;2023-05-10T06:09:59;59.43;;;21.93;;
20294;SDS011;10306;52.128;5.208;2023-05-10T06:12:25;51.97;;;20.70;;
20294;SDS011;10306;52.128;5.208;2023-05-10T06:14:51;47.33;;;19.37;;
20294;SDS011;10306;52.128;5.208;2023-05-10T06:17:17;45.77;;;18.70;;
20294;SDS011;10306;52.128;5.208;2023-05-10T06:19:43;33.97;;;16.27;;
20294;SDS011;10306;52.128;5.208;2023-05-10T06:22:09;34.57;;;14.90;;
20294;SDS011;10306;52.128;5.208;2023-05-10T06:24:35;26.50;;;14.67;;
20294;SDS011;10306;52.128;5.208;2023-05-10T06:27:00;31.73;;;14.17;;
20294;SDS011;10306;52.128;5.208;2023-05-10T06:29:27;26.93;;;13.90;;
20294;SDS011;10306;52.128;5.208;2023-05-10T06:31:53;21.53;;;11.90;;
20294;SDS011;10306;52.128;5.208;2023-05-10T06:34:19;24.97;;;13.23;;
20294;SDS011;10306;52.128;5.208;2023-05-10T06:36:45;21.67;;;12.50;;
20294;SDS011;10306;52.128;5.208;2023-05-10T06:39:11;21.87;;;12.33;;
20294;SDS011;10306;52.128;5.208;2023-05-10T06:41:37;21.27;;;11.87;;
20294;SDS011;10306;52.128;5.208;2023-05-10T06:44:03;25.13;;;11.47;;
20294;SDS011;10306;52.128;5.208;2023-05-10T06:46:30;21.10;;;11.93;;
20294;SDS011;10306;52.128;5.208;2023-05-10T06:48:55;19.53;;;11.40;;
20294;SDS011;10306;52.128;5.208;2023-05-10T06:51:22;19.93;;;12.00;;
20294;SDS011;10306;52.128;5.208;2023-05-10T06:53:47;22.37;;;12.00;;
20294;SDS011;10306;52.128;5.208;2023-05-10T06:56:13;22.43;;;11.03;;
20294;SDS011;10306;52.128;5.208;2023-05-10T06:58:39;19.30;;;11.23;;
20294;SDS011;10306;52.128;5.208;2023-05-10T07:01:05;16.73;;;10.77;;
20294;SDS011;10306;52.128;5.208;2023-05-10T07:03:31;19.13;;;10.53;;
20294;SDS011;10306;52.128;5.208;2023-05-10T07:06:01;19.63;;;11.13;;
20294;SDS011;10306;52.128;5.208;2023-05-10T07:08:32;20.27;;;10.57;;
20294;SDS011;10306;52.128;5.208;2023-05-10T07:11:02;18.67;;;10.80;;
20294;SDS011;10306;52.128;5.208;2023-05-10T07:13:28;19.80;;;10.63;;
20294;SDS011;10306;52.128;5.208;2023-05-10T07:15:55;16.67;;;10.57;;
20294;SDS011;10306;52.128;5.208;2023-05-10T07:18:21;22.97;;;10.87;;
20294;SDS011;10306;52.128;5.208;2023-05-10T07:20:47;17.13;;;10.23;;
20294;SDS011;10306;52.128;5.208;2023-05-10T07:23:12;17.10;;;10.17;;
20294;SDS011;10306;52.128;5.208;2023-05-10T07:25:38;14.70;;;9.50;;
20294;SDS011;10306;52.128;5.208;2023-05-10T07:28:04;12.47;;;9.10;;
20294;SDS011;10306;52.128;5.208;2023-05-10T07:30:30;13.60;;;8.87;;
20294;SDS011;10306;52.128;5.208;2023-05-10T07:32:56;15.67;;;9.30;;
20294;SDS011;10306;52.128;5.208;2023-05-10T07:35:22;12.70;;;9.50;;
20294;SDS011;10306;52.128;5.208;2023-05-10T07:37:48;13.93;;;9.60;;
20294;SDS011;10306;52.128;5.208;2023-05-10T07:40:14;14.03;;;9.40;;
20294;SDS011;10306;52.128;5.208;2023-05-10T07:42:40;15.20;;;9.37;;
20294;SDS011;10306;52.128;5.208;2023-05-10T07:45:06;13.47;;;8.77;;
20294;SDS011;10306;52.128;5.208;2023-05-10T07:47:32;12.40;;;9.00;;
20294;SDS011;10306;52.128;5.208;2023-05-10T07:49:58;10.97;;;8.53;;
20294;SDS011;10306;52.128;5.208;2023-05-10T07:52:24;10.93;;;7.87;;
20294;SDS011;10306;52.128;5.208;2023-05-10T07:54:50;11.13;;;8.07;;
20294;SDS011;10306;52.128;5.208;2023-05-10T07:57:17;16.53;;;9.17;;
20294;SDS011;10306;52.128;5.208;2023-05-10T07:59:43;10.83;;;8.30;;
20294;SDS011;10306;52.128;5.208;2023-05-10T08:02:10;12.73;;;9.13;;
20294;SDS011;10306;52.128;5.208;2023-05-10T08:04:36;13.47;;;8.70;;
20294;SDS011;10306;52.128;5.208;2023-05-10T08:07:02;11.47;;;8.83;;
20294;SDS011;10306;52.128;5.208;2023-05-10T08:09:28;9.50;;;8.37;;
20294;SDS011;10306;52.128;5.208;2023-05-10T08:11:54;12.87;;;8.67;;
20294;SDS011;10306;52.128;5.208;2023-05-10T08:14:20;10.57;;;8.53;;
20294;SDS011;10306;52.128;5.208;2023-05-10T08:16:46;11.07;;;8.53;;
20294;SDS011;10306;52.128;5.208;2023-05-10T08:19:12;14.97;;;8.80;;
20294;SDS011;10306;52.128;5.208;2023-05-10T08:21:38;11.37;;;9.33;;
20294;SDS011;10306;52.128;5.208;2023-05-10T08:24:07;13.67;;;9.13;;
20294;SDS011;10306;52.128;5.208;2023-05-10T08:26:33;12.43;;;9.30;;
20294;SDS011;10306;52.128;5.208;2023-05-10T08:28:59;12.50;;;8.63;;
20294;SDS011;10306;52.128;5.208;2023-05-10T08:31:25;12.23;;;8.70;;
20294;SDS011;10306;52.128;5.208;2023-05-10T08:33:51;11.37;;;9.20;;
20294;SDS011;10306;52.128;5.208;2023-05-10T08:36:17;12.70;;;9.23;;
20294;SDS011;10306;52.128;5.208;2023-05-10T08:38:48;10.97;;;9.23;;
20294;SDS011;10306;52.128;5.208;2023-05-10T08:41:14;11.67;;;8.80;;
20294;SDS011;10306;52.128;5.208;2023-05-10T08:43:40;13.57;;;9.27;;
20294;SDS011;10306;52.128;5.208;2023-05-10T08:46:11;9.53;;;8.00;;
20294;SDS011;10306;52.128;5.208;2023-05-10T08:48:39;11.50;;;8.67;;
20294;SDS011;10306;52.128;5.208;2023-05-10T08:51:06;10.67;;;8.70;;
20294;SDS011;10306;52.128;5.208;2023-05-10T08:53:33;13.03;;;9.63;;
20294;SDS011;10306;52.128;5.208;2023-05-10T08:56:02;12.17;;;9.53;;
20294;SDS011;10306;52.128;5.208;2023-05-10T08:58:28;14.83;;;9.23;;
20294;SDS011;10306;52.128;5.208;2023-05-10T09:00:54;13.17;;;8.97;;
20294;SDS011;10306;52.128;5.208;2023-05-10T09:03:20;14.37;;;9.50;;
20294;SDS011;10306;52.128;5.208;2023-05-10T09:05:47;13.60;;;8.93;;
20294;SDS011;10306;52.128;5.208;2023-05-10T09:08:13;9.73;;;8.23;;
20294;SDS011;10306;52.128;5.208;2023-05-10T09:10:41;12.57;;;8.67;;
20294;SDS011;10306;52.128;5.208;2023-05-10T09:13:08;10.87;;;8.43;;
20294;SDS011;10306;52.128;5.208;2023-05-10T09:15:35;9.87;;;8.07;;
20294;SDS011;10306;52.128;5.208;2023-05-10T09:18:01;9.80;;;8.03;;
20294;SDS011;10306;52.128;5.208;2023-05-10T09:20:27;8.67;;;7.47;;
20294;SDS011;10306;52.128;5.208;2023-05-10T09:22:53;10.17;;;8.23;;
20294;SDS011;10306;52.128;5.208;2023-05-10T09:25:19;9.90;;;7.97;;
20294;SDS011;10306;52.128;5.208;2023-05-10T09:27:46;10.90;;;8.13;;
20294;SDS011;10306;52.128;5.208;2023-05-10T09:30:16;9.90;;;7.10;;
20294;SDS011;10306;52.128;5.208;2023-05-10T09:32:44;10.53;;;7.57;;
20294;SDS011;10306;52.128;5.208;2023-05-10T09:35:10;8.67;;;6.63;;
20294;SDS011;10306;52.128;5.208;2023-05-10T09:37:38;9.40;;;7.43;;
20294;SDS011;10306;52.128;5.208;2023-05-10T09:40:06;8.37;;;7.20;;
20294;SDS011;10306;52.128;5.208;2023-05-10T09:42:33;9.10;;;7.10;;
20294;SDS011;10306;52.128;5.208;2023-05-10T09:45:00;8.77;;;7.10;;
20294;SDS011;10306;52.128;5.208;2023-05-10T09:47:26;8.63;;;6.77;;
20294;SDS011;10306;52.128;5.208;2023-05-10T09:49:52;8.17;;;6.97;;
20294;SDS011;10306;52.128;5.208;2023-05-10T09:52:22;8.50;;;6.40;;
20294;SDS011;10306;52.128;5.208;2023-05-10T09:54:52;6.53;;;5.93;;
20294;SDS011;10306;52.128;5.208;2023-05-10T09:57:19;6.20;;;5.70;;
20294;SDS011;10306;52.128;5.208;2023-05-10T09:59:46;7.13;;;5.97;;
20294;SDS011;10306;52.128;5.208;2023-05-10T10:02:12;6.30;;;5.57;;
20294;SDS011;10306;52.128;5.208;2023-05-10T10:04:39;7.47;;;5.50;;
20294;SDS011;10306;52.128;5.208;2023-05-10T10:07:05;5.77;;;5.23;;
20294;SDS011;10306;52.128;5.208;2023-05-10T10:09:32;5.43;;;5.03;;
20294;SDS011;10306;52.128;5.208;2023-05-10T10:12:02;6.70;;;5.50;;
20294;SDS011;10306;52.128;5.208;2023-05-10T10:14:28;5.60;;;5.00;;
20294;SDS011;10306;52.128;5.208;2023-05-10T10:16:55;5.90;;;5.33;;
20294;SDS011;10306;52.128;5.208;2023-05-10T10:19:21;5.47;;;4.97;;
20294;SDS011;10306;52.128;5.208;2023-05-10T10:21:47;6.43;;;5.03;;
20294;SDS011;10306;52.128;5.208;2023-05-10T10:24:13;6.73;;;5.20;;
20294;SDS011;10306;52.128;5.208;2023-05-10T10:26:40;5.47;;;4.97;;
20294;SDS011;10306;52.128;5.208;2023-05-10T10:29:21;4.77;;;4.37;;
20294;SDS011;10306;52.128;5.208;2023-05-10T10:34:33;4.50;;;4.10;;
20294;SDS011;10306;52.128;5.208;2023-05-10T10:37:04;4.53;;;4.13;;
20294;SDS011;10306;52.128;5.208;2023-05-10T10:39:30;3.83;;;3.53;;
20294;SDS011;10306;52.128;5.208;2023-05-10T10:41:56;4.60;;;4.30;;
20294;SDS011;10306;52.128;5.208;2023-05-10T10:47:02;4.80;;;4.50;;
20294;SDS011;10306;52.128;5.208;2023-05-10T10:49:31;4.50;;;4.17;;
20294;SDS011;10306;52.128;5.208;2023-05-10T10:52:13;5.10;;;4.60;;
20294;SDS011;10306;52.128;5.208;2023-05-10T10:57:17;6.90;;;4.83;;
20294;SDS011;10306;52.128;5.208;2023-05-10T10:59:44;4.33;;;3.93;;
20294;SDS011;10306;52.128;5.208;2023-05-10T11:02:10;4.53;;;4.13;;
20294;SDS011;10306;52.128;5.208;2023-05-10T11:04:56;4.70;;;4.20;;
20294;SDS011;10306;52.128;5.208;2023-05-10T11:07:22;4.07;;;3.77;;
20294;SDS011;10306;52.128;5.208;2023-05-10T11:09:48;4.17;;;3.80;;
20294;SDS011;10306;52.128;5.208;2023-05-10T11:12:14;3.70;;;3.50;;
20294;SDS011;10306;52.128;5.208;2023-05-10T11:14:40;3.80;;;3.50;;
20294;SDS011;10306;52.128;5.208;2023-05-10T11:20:06;4.43;;;3.77;;
20294;SDS011;10306;52.128;5.208;2023-05-10T11:22:48;4.40;;;4.03;;
20294;SDS011;10306;52.128;5.208;2023-05-10T11:25:15;3.70;;;3.40;;
20294;SDS011;10306;52.128;5.208;2023-05-10T11:27:41;3.53;;;3.23;;
20294;SDS011;10306;52.128;5.208;2023-05-10T11:30:09;4.07;;;3.70;;
20294;SDS011;10306;52.128;5.208;2023-05-10T11:32:38;3.40;;;3.10;;
20294;SDS011;10306;52.128;5.208;2023-05-10T11:35:08;3.37;;;3.07;;
20294;SDS011;10306;52.128;5.208;2023-05-10T11:37:34;3.70;;;3.07;;
20294;SDS011;10306;52.128;5.208;2023-05-10T11:40:01;3.07;;;2.87;;
20294;SDS011;10306;52.128;5.208;2023-05-10T11:42:28;4.10;;;3.27;;
20294;SDS011;10306;52.128;5.208;2023-05-10T11:44:54;3.27;;;3.00;;
20294;SDS011;10306;52.128;5.208;2023-05-10T11:47:20;3.30;;;3.00;;
20294;SDS011;10306;52.128;5.208;2023-05-10T11:49:46;3.40;;;3.13;;
20294;SDS011;10306;52.128;5.208;2023-05-10T11:52:12;4.03;;;3.70;;
20294;SDS011;10306;52.128;5.208;2023-05-10T11:54:50;4.17;;;3.20;;
20294;SDS011;10306;52.128;5.208;2023-05-10T11:57:18;3.50;;;3.30;;
20294;SDS011;10306;52.128;5.208;2023-05-10T11:59:45;3.27;;;3.00;;
20294;SDS011;10306;52.128;5.208;2023-05-10T12:02:11;2.83;;;2.70;;
20294;SDS011;10306;52.128;5.208;2023-05-10T12:04:37;3.50;;;3.20;;
20294;SDS011;10306;52.128;5.208;2023-05-10T12:07:03;3.37;;;3.07;;
20294;SDS011;10306;52.128;5.208;2023-05-10T12:09:29;3.03;;;2.83;;
20294;SDS011;10306;52.128;5.208;2023-05-10T12:11:55;3.10;;;2.60;;
20294;SDS011;10306;52.128;5.208;2023-05-10T12:14:22;2.90;;;2.70;;
20294;SDS011;10306;52.128;5.208;2023-05-10T12:16:49;3.07;;;2.87;;
20294;SDS011;10306;52.128;5.208;2023-05-10T12:19:18;2.97;;;2.77;;
20294;SDS011;10306;52.128;5.208;2023-05-10T12:21:46;3.33;;;3.00;;
20294;SDS011;10306;52.128;5.208;2023-05-10T12:24:12;3.60;;;3.40;;
20294;SDS011;10306;52.128;5.208;2023-05-10T12:26:41;3.80;;;3.50;;
20294;SDS011;10306;52.128;5.208;2023-05-10T12:29:14;3.10;;;2.80;;
20294;SDS011;10306;52.128;5.208;2023-05-10T12:31:50;3.47;;;3.23;;
20294;SDS011;10306;52.128;5.208;2023-05-10T12:34:23;3.47;;;3.27;;
20294;SDS011;10306;52.128;5.208;2023-05-10T12:36:51;3.70;;;3.40;;
20294;SDS011;10306;52.128;5.208;2023-05-10T12:39:17;3.30;;;3.10;;
20294;SDS011;10306;52.128;5.208;2023-05-10T12:41:43;3.73;;;3.53;;
20294;SDS011;10306;52.128;5.208;2023-05-10T12:44:09;3.60;;;3.40;;
20294;SDS011;10306;52.128;5.208;2023-05-10T12:46:35;4.27;;;3.97;;
20294;SDS011;10306;52.128;5.208;2023-05-10T12:49:01;6.17;;;5.63;;
20294;SDS011;10306;52.128;5.208;2023-05-10T12:51:27;11.10;;;7.77;;
20294;SDS011;10306;52.128;5.208;2023-05-10T12:53:53;13.93;;;8.03;;
20294;SDS011;10306;52.128;5.208;2023-05-10T12:56:19;16.73;;;8.90;;
20294;SDS011;10306;52.128;5.208;2023-05-10T12:58:45;14.03;;;9.67;;
20294;SDS011;10306;52.128;5.208;2023-05-10T13:01:13;13.67;;;9.67;;
20294;SDS011;10306;52.128;5.208;2023-05-10T13:03:39;17.47;;;10.03;;
20294;SDS011;10306;52.128;5.208;2023-05-10T13:06:05;17.80;;;10.07;;
20294;SDS011;10306;52.128;5.208;2023-05-10T13:08:31;14.07;;;9.80;;
20294;SDS011;10306;52.128;5.208;2023-05-10T13:10:59;17.17;;;9.83;;
20294;SDS011;10306;52.128;5.208;2023-05-10T13:13:25;15.43;;;10.40;;
20294;SDS011;10306;52.128;5.208;2023-05-10T13:15:51;17.77;;;10.73;;
20294;SDS011;10306;52.128;5.208;2023-05-10T13:18:17;19.70;;;10.77;;
20294;SDS011;10306;52.128;5.208;2023-05-10T13:20:43;19.33;;;11.20;;
20294;SDS011;10306;52.128;5.208;2023-05-10T13:23:09;22.83;;;12.00;;
20294;SDS011;10306;52.128;5.208;2023-05-10T13:25:35;19.00;;;11.47;;
20294;SDS011;10306;52.128;5.208;2023-05-10T13:28:01;22.60;;;12.60;;
20294;SDS011;10306;52.128;5.208;2023-05-10T13:30:27;19.70;;;11.33;;
20294;SDS011;10306;52.128;5.208;2023-05-10T13:32:53;25.30;;;12.70;;
20294;SDS011;10306;52.128;5.208;2023-05-10T13:35:19;21.17;;;11.60;;
20294;SDS011;10306;52.128;5.208;2023-05-10T13:37:45;22.93;;;11.53;;
20294;SDS011;10306;52.128;5.208;2023-05-10T13:40:11;25.17;;;11.97;;
20294;SDS011;10306;52.128;5.208;2023-05-10T13:42:38;19.97;;;11.67;;
20294;SDS011;10306;52.128;5.208;2023-05-10T13:45:04;18.40;;;10.33;;
20294;SDS011;10306;52.128;5.208;2023-05-10T13:47:30;20.53;;;11.00;;
20294;SDS011;10306;52.128;5.208;2023-05-10T13:49:56;16.47;;;10.13;;
20294;SDS011;10306;52.128;5.208;2023-05-10T13:52:23;14.57;;;10.13;;
20294;SDS011;10306;52.128;5.208;2023-05-10T13:54:49;14.73;;;9.67;;
20294;SDS011;10306;52.128;5.208;2023-05-10T13:57:17;14.40;;;8.83;;
20294;SDS011;10306;52.128;5.208;2023-05-10T13:59:43;15.80;;;9.70;;
20294;SDS011;10306;52.128;5.208;2023-05-10T14:02:09;14.30;;;8.93;;
20294;SDS011;10306;52.128;5.208;2023-05-10T14:04:37;11.97;;;8.50;;
20294;SDS011;10306;52.128;5.208;2023-05-10T14:07:03;13.60;;;9.37;;
20294;SDS011;10306;52.128;5.208;2023-05-10T14:09:29;13.67;;;9.20;;
20294;SDS011;10306;52.128;5.208;2023-05-10T14:11:55;12.53;;;8.93;;
20294;SDS011;10306;52.128;5.208;2023-05-10T14:14:21;10.70;;;8.03;;
20294;SDS011;10306;52.128;5.208;2023-05-10T14:16:47;11.73;;;7.93;;
20294;SDS011;10306;52.128;5.208;2023-05-10T14:19:13;11.43;;;8.03;;
20294;SDS011;10306;52.128;5.208;2023-05-10T14:21:39;10.77;;;7.90;;
20294;SDS011;10306;52.128;5.208;2023-05-10T14:24:05;12.23;;;8.30;;
20294;SDS011;10306;52.128;5.208;2023-05-10T14:26:32;12.93;;;8.10;;
20294;SDS011;10306;52.128;5.208;2023-05-10T14:28:59;9.67;;;7.83;;
20294;SDS011;10306;52.128;5.208;2023-05-10T14:31:25;12.20;;;7.70;;
20294;SDS011;10306;52.128;5.208;2023-05-10T14:33:51;11.27;;;7.70;;
20294;SDS011;10306;52.128;5.208;2023-05-10T14:36:17;10.53;;;8.20;;
20294;SDS011;10306;52.128;5.208;2023-05-10T14:38:43;8.97;;;7.20;;
20294;SDS011;10306;52.128;5.208;2023-05-10T14:41:09;14.83;;;8.37;;
20294;SDS011;10306;52.128;5.208;2023-05-10T14:43:39;10.43;;;6.97;;
20294;SDS011;10306;52.128;5.208;2023-05-10T14:46:05;9.37;;;7.13;;
20294;SDS011;10306;52.128;5.208;2023-05-10T14:48:31;8.53;;;7.00;;
20294;SDS011;10306;52.128;5.208;2023-05-10T14:50:57;8.23;;;7.40;;